Agana Heights, GU

12:53 PM ChST on April 26, 2015 (GMT +1000)
Maite | | Change Station
CLOSE
Current Station
Personal Weather Station
Location: Maite, GU
Elevation: 140 ft
Nearby Weather Stations

Elev 140 ft 13.48 °N, 144.76 °E | Updated 15 seconds ago

Overcast
Overcast
85.5 °F
Feels Like 99 °F
N
8.0
Wind Variable Wind from SE
Gusts 17.0 mph

Today
High -- | Low -- °F
--% Chance of Precip.
Yesterday
High -- | Low -- °F
Precip. -- in
6:02 AM 6:35 PM
Waxing Crescent, 51% visible
Pressure 29.89 in
Visibility 7.0 miles
Clouds Few 1600 ft
Mostly Cloudy 4100 ft
Mostly Cloudy 6000 ft
Heat Index 99 °F
Dew Point 79 °F
Humidity 81%
Rainfall 0.04 in
Snow Depth Not available.
UV 15.6 out of 12
Pollen Not available.
Air Quality Not available.
Flu Activity Regional
SPECI PGUM 260204Z 09012G18KT 7SM -RA FEW016 BKN041 BKN060 27/25 A2989 RMK AO2 P0001 $

More Conditions Fewer Conditions

Pressure 29.89 in
Visibility 7.0 miles
Clouds Few 1600 ft
Mostly Cloudy 4100 ft
Mostly Cloudy 6000 ft
Heat Index 99 °F
Dew Point 79 °F
Humidity 81%
Rainfall 0.04 in
Snow Depth Not available.
UV 15.6 out of 12
Pollen Not available.
Air Quality Not available.
Flu Activity Regional
SPECI PGUM 260204Z 09012G18KT 7SM -RA FEW016 BKN041 BKN060 27/25 A2989 RMK AO2 P0001 $

More Conditions Fewer Conditions

10-Day Weather Forecast

Almanac

Astronomy

Apr. 26, 2015 Rise Set
Actual Time
Civil Twilight
Nautical Twilight
Astronomical Twilight
Moon
Length of Visible Light
Length of Day
Tomorrow will be .
, % of the Moon is Illuminated

Today's Extremes

State Highs State Lows

Community

WunderPhotos

Upload Photos

1,816,909 photos uploaded!

WunderBlogs® & News

Nearby

Air Quality

  Air Quality AQ Index Pollutant
Not available.

Snow Depth

Station Depth Elevation

Earthquake Activity

City Distance Mag. Time & Date
Minimum magnitude displayed is 2.5.

Coastal Water Temperatures

Place Temperature

Stations

Nearby Weather Stations

Station Location Temp. Windchill Dew Point Humidity Wind Precip. Elev Updated Type